Time;durP1;ratioP1;P1;durP2;ratioP2;P2;SDS_P1;SDS_P2;PMS_P1;PMS_P2;Temp;Humidity;BMP_temperature;BMP_pressure;BME280_temperature;BME280_humidity;BME280_pressure;Samples;Min_cycle;Max_cycle;Signal;HPM_P1;HPM_P2
2023/03/17 00:01:02;;;;;;;7.70;2.85;;;;;;;1.15;69.39;98664.13;2535545;29;20500;-77
2023/03/17 00:02:18;;;;;;;6.20;3.30;;;;;;;1.42;68.87;98662.75;2535377;29;20596;-77
2023/03/17 00:03:40;;;;;;;6.90;3.20;;;;;;;1.46;67.72;98661.94;2535062;29;20151;-76
2023/03/17 00:04:56;;;;;;;16.05;7.30;;;;;;;1.17;70.68;98662.44;2535691;29;20060;-76
2023/03/17 00:06:24;;;;;;;22.27;9.85;;;;;;;1.27;79.31;98653.09;2535270;29;20048;-76
2023/03/17 00:07:40;;;;;;;27.60;11.85;;;;;;;0.96;81.29;98656.13;2535586;29;20063;-76
2023/03/17 00:08:57;;;;;;;34.78;15.85;;;;;;;0.85;89.25;98652.56;2535688;29;20163;-77
2023/03/17 00:10:19;;;;;;;39.58;16.02;;;;;;;0.74;93.61;98652.38;2535441;29;20096;-77
2023/03/17 00:11:34;;;;;;;42.63;16.25;;;;;;;0.86;92.72;98659.44;2535695;29;20071;-76
2023/03/17 00:12:52;;;;;;;39.78;16.05;;;;;;;0.84;93.97;98658.56;2535682;29;20052;-76
2023/03/17 00:14:08;;;;;;;43.90;17.05;;;;;;;0.91;95.81;98659.47;2535509;29;20103;-76
2023/03/17 00:15:26;;;;;;;34.92;15.80;;;;;;;0.60;97.69;98661.59;2535565;29;20504;-76
2023/03/17 00:16:44;;;;;;;36.22;14.93;;;;;;;0.55;99.97;98656.38;2535580;29;20130;-76
2023/03/17 00:18:00;;;;;;;38.65;14.85;;;;;;;0.91;95.48;98657.78;2536577;29;20044;-77
2023/03/17 00:19:28;;;;;;;34.20;14.32;;;;;;;0.92;93.12;98663.81;2537323;29;20048;-81
2023/03/17 00:20:45;;;;;;;32.83;14.98;;;;;;;0.72;92.53;98661.78;2537815;29;20073;-76
2023/03/17 00:22:04;;;;;;;27.92;11.95;;;;;;;0.68;92.48;98668.59;2537265;29;20052;-76
2023/03/17 00:23:23;;;;;;;26.52;10.93;;;;;;;0.11;94.95;98662.53;2537252;29;20558;-76
2023/03/17 00:24:38;;;;;;;21.63;10.45;;;;;;;0.52;93.23;98662.38;2537397;29;20083;-77
2023/03/17 00:25:56;;;;;;;24.75;9.48;;;;;;;0.26;94.47;98662.78;2537529;29;20123;-76
2023/03/17 00:27:12;;;;;;;24.10;9.95;;;;;;;0.58;93.03;98659.03;2537055;29;20052;-76
2023/03/17 00:28:28;;;;;;;21.63;10.30;;;;;;;0.72;89.52;98654.06;2537220;29;20587;-76
2023/03/17 00:29:43;;;;;;;25.85;11.15;;;;;;;0.91;87.14;98657.78;2537079;29;20115;-76
2023/03/17 00:31:01;;;;;;;21.35;9.77;;;;;;;0.84;87.38;98661.13;2537612;29;20055;-76
2023/03/17 00:32:19;;;;;;;21.33;9.52;;;;;;;0.83;86.33;98657.66;2537162;29;20072;-76
2023/03/17 00:33:36;;;;;;;23.13;9.40;;;;;;;0.78;86.69;98646.44;2536609;29;20403;-76
2023/03/17 00:34:51;;;;;;;19.63;7.93;;;;;;;0.79;85.63;98649.88;2537198;29;20063;-77
2023/03/17 00:36:12;;;;;;;18.25;7.90;;;;;;;0.72;86.20;98641.19;2537227;29;20942;-76
2023/03/17 00:37:28;;;;;;;15.60;7.53;;;;;;;0.91;85.86;98631.13;2537326;29;20060;-77
2023/03/17 00:38:44;;;;;;;15.80;7.07;;;;;;;0.78;83.69;98624.94;2537074;29;20052;-76
2023/03/17 00:40:00;;;;;;;12.50;5.25;;;;;;;0.02;88.34;98627.19;2537186;29;20495;-76
2023/03/17 00:41:17;;;;;;;11.73;5.30;;;;;;;0.26;89.20;98631.91;2537226;29;20130;-76
2023/03/17 00:42:32;;;;;;;13.43;5.13;;;;;;;0.35;85.67;98620.88;2536992;29;20961;-76
2023/03/17 00:43:49;;;;;;;11.52;4.80;;;;;;;0.46;83.93;98622.75;2537064;29;20047;-77
2023/03/17 00:45:05;;;;;;;10.60;4.88;;;;;;;0.33;84.27;98621.69;2537129;29;20107;-76
2023/03/17 00:46:26;;;;;;;9.18;4.75;;;;;;;0.47;83.21;98614.19;2536708;29;20044;-76
2023/03/17 00:47:44;;;;;;;8.20;3.70;;;;;;;0.64;80.59;98620.44;2536966;29;20550;-76
2023/03/17 00:49:09;;;;;;;12.25;4.80;;;;;;;0.16;84.36;98621.44;2537030;29;20488;-76
2023/03/17 00:50:27;;;;;;;9.10;4.63;;;;;;;0.58;82.50;98627.22;2536861;29;20056;-76
2023/03/17 00:51:43;;;;;;;13.88;5.10;;;;;;;0.68;81.09;98623.94;2536385;29;20052;-76
2023/03/17 00:53:00;;;;;;;15.50;5.50;;;;;;;0.70;81.15;98619.69;2536351;29;20148;-77
2023/03/17 00:54:18;;;;;;;18.58;6.32;;;;;;;0.49;84.46;98622.78;2537025;29;20048;-76
2023/03/17 00:55:33;;;;;;;26.00;8.25;;;;;;;0.36;90.89;98616.59;2537093;29;20075;-76
2023/03/17 00:56:50;;;;;;;18.65;8.20;;;;;;;0.67;87.24;98611.91;2537048;29;20103;-76
2023/03/17 00:58:25;;;;;;;15.43;6.88;;;;;;;0.37;87.17;98606.31;2536109;29;20488;-76
2023/03/17 00:59:41;;;;;;;10.77;5.07;;;;;;;0.05;87.55;98613.50;2536542;29;20063;-76
2023/03/17 01:00:58;;;;;;;9.50;3.90;;;;;;;-0.09;87.61;98610.69;2526594;29;20063;-75
2023/03/17 01:02:14;;;;;;;8.23;4.05;;;;;;;0.21;84.85;98614.63;2530787;29;20052;-76
2023/03/17 01:03:29;;;;;;;9.07;3.70;;;;;;;0.13;84.85;98609.34;2537064;29;20107;-76
2023/03/17 01:04:45;;;;;;;8.82;3.53;;;;;;;0.47;82.24;98606.47;2537080;29;20052;-76
2023/03/17 01:06:04;;;;;;;8.27;3.78;;;;;;;0.38;82.33;98605.47;2536668;29;20052;-76
2023/03/17 01:07:21;;;;;;;8.23;3.83;;;;;;;0.39;80.24;98606.34;2536769;29;20068;-76
2023/03/17 01:08:39;;;;;;;5.93;3.30;;;;;;;0.51;79.42;98606.53;2537010;29;20060;-77
2023/03/17 01:09:55;;;;;;;8.02;3.63;;;;;;;0.45;77.69;98609.00;2537243;29;20110;-76
2023/03/17 01:11:20;;;;;;;7.00;3.45;;;;;;;0.00;83.37;98610.88;2536649;29;20052;-76
2023/03/17 01:12:36;;;;;;;5.53;3.10;;;;;;;0.39;80.31;98607.19;2526606;29;20100;-76
2023/03/17 01:13:52;;;;;;;6.97;3.03;;;;;;;0.58;78.90;98606.59;2530617;29;20135;-76
2023/03/17 01:15:09;;;;;;;7.30;3.20;;;;;;;0.56;77.87;98598.88;2536733;29;20063;-76
2023/03/17 01:16:25;;;;;;;5.70;2.92;;;;;;;0.49;78.10;98591.88;2536826;29;20060;-76
2023/03/17 01:17:41;;;;;;;10.85;5.18;;;;;;;0.24;80.97;98597.53;2536364;29;20068;-76
2023/03/17 01:18:57;;;;;;;14.88;5.63;;;;;;;0.32;83.58;98594.19;2536746;29;20405;-76
2023/03/17 01:20:21;;;;;;;16.60;6.70;;;;;;;0.40;83.96;98592.63;2536646;29;20059;-76
2023/03/17 01:21:37;;;;;;;12.00;4.97;;;;;;;0.51;83.91;98597.91;2536977;29;20079;-77
2023/03/17 01:22:53;;;;;;;11.32;4.53;;;;;;;0.56;81.21;98588.56;2537032;29;20084;-76
2023/03/17 01:24:09;;;;;;;11.80;5.28;;;;;;;0.52;82.48;98589.34;2526395;29;20139;-76
2023/03/17 01:25:25;;;;;;;9.10;4.07;;;;;;;-0.03;84.48;98590.19;2530293;29;20064;-76
2023/03/17 01:26:41;;;;;;;6.75;3.72;;;;;;;-0.31;87.87;98589.72;2536369;29;20052;-76
2023/03/17 01:27:58;;;;;;;7.40;3.47;;;;;;;-0.33;88.36;98584.56;2536889;29;20499;-76
2023/03/17 01:29:13;;;;;;;7.28;3.38;;;;;;;0.09;85.48;98582.69;2536593;29;20052;-76
2023/03/17 01:30:36;;;;;;;6.78;3.20;;;;;;;0.20;82.78;98574.28;2536765;29;20052;-76
2023/03/17 01:31:51;;;;;;;6.78;3.33;;;;;;;0.35;82.10;98566.78;2536435;29;20078;-76
2023/03/17 01:33:09;;;;;;;6.63;2.60;;;;;;;0.04;82.04;98574.03;2536595;29;20416;-76
2023/03/17 01:34:24;;;;;;;6.53;2.85;;;;;;;0.36;79.56;98568.50;2536630;29;20559;-76
2023/03/17 01:35:42;;;;;;;6.80;2.75;;;;;;;0.22;79.04;98567.44;2536651;29;20459;-77
2023/03/17 01:36:58;;;;;;;5.13;2.72;;;;;;;0.20;79.90;98559.69;2536287;29;20048;-76
2023/03/17 01:38:14;;;;;;;6.35;3.17;;;;;;;0.58;77.40;98560.22;2536587;29;20139;-75
2023/03/17 01:39:30;;;;;;;7.35;3.10;;;;;;;0.54;78.40;98554.16;2536632;29;20076;-76
2023/03/17 01:40:48;;;;;;;8.40;3.20;;;;;;;0.33;78.87;98557.28;2536498;29;20544;-76
2023/03/17 01:42:04;;;;;;;5.28;2.75;;;;;;;0.51;77.93;98554.13;2536419;29;20090;-76
2023/03/17 01:43:27;;;;;;;11.02;4.72;;;;;;;-0.16;85.30;98559.09;2536263;29;20153;-76
2023/03/17 01:45:04;;;;;;;14.57;6.32;;;;;;;0.15;89.81;98561.31;2536592;29;20059;-78
2023/03/17 01:46:24;;;;;;;15.23;6.07;;;;;;;0.48;87.96;98557.50;2536243;29;20053;-75
2023/03/17 01:47:40;;;;;;;16.35;7.13;;;;;;;0.53;86.15;98557.59;2536432;29;20419;-75
2023/03/17 01:49:05;;;;;;;16.75;7.18;;;;;;;0.64;84.67;98558.59;2536689;29;20100;-76
2023/03/17 01:50:21;;;;;;;16.45;6.90;;;;;;;0.54;85.71;98555.03;2536667;29;20609;-79
2023/03/17 01:51:49;;;;;;;14.65;7.53;;;;;;;0.64;83.74;98552.59;2536450;29;20403;-75
2023/03/17 01:53:04;;;;;;;14.02;7.10;;;;;;;0.29;88.32;98553.81;2536331;29;20442;-75
2023/03/17 01:54:23;;;;;;;12.57;6.40;;;;;;;0.35;87.77;98542.72;2536454;29;20048;-75
2023/03/17 01:55:40;;;;;;;14.43;6.88;;;;;;;0.39;86.67;98539.38;2536246;29;20079;-76
2023/03/17 01:57:02;;;;;;;15.68;6.22;;;;;;;0.53;85.95;98542.13;2536518;29;20087;-76
2023/03/17 01:58:21;;;;;;;12.70;6.00;;;;;;;0.53;82.29;98545.59;2536541;29;20052;-76
2023/03/17 01:59:43;;;;;;;16.45;5.63;;;;;;;0.39;82.03;98545.38;2536090;29;20360;-77
2023/03/17 02:00:58;;;;;;;12.52;4.85;;;;;;;0.26;83.43;98543.47;2536507;29;20072;-78
2023/03/17 02:02:19;;;;;;;15.82;4.93;;;;;;;0.17;82.93;98540.75;2536683;29;20060;-75
2023/03/17 02:03:35;;;;;;;12.85;4.35;;;;;;;0.04;83.75;98538.00;2536425;29;20136;-77
2023/03/17 02:04:51;;;;;;;12.50;4.80;;;;;;;-0.09;84.36;98536.06;2536520;29;20133;-77
2023/03/17 02:06:09;;;;;;;10.70;4.22;;;;;;;0.01;83.43;98531.94;2536402;29;20415;-77
2023/03/17 02:07:25;;;;;;;9.65;4.43;;;;;;;-0.38;85.96;98533.88;2536429;29;20048;-77
2023/03/17 02:08:41;;;;;;;12.85;3.65;;;;;;;-0.43;89.05;98529.47;2536358;29;20056;-76
2023/03/17 02:09:58;;;;;;;9.15;3.63;;;;;;;-0.32;87.70;98518.53;2536156;29;20530;-77
2023/03/17 02:11:14;;;;;;;7.65;3.40;;;;;;;-0.23;85.17;98522.94;2536405;29;20051;-76
2023/03/17 02:12:29;;;;;;;10.07;3.47;;;;;;;-0.38;86.32;98524.44;2536769;29;20059;-77
2023/03/17 02:13:45;;;;;;;7.55;3.33;;;;;;;-0.30;85.34;98527.13;2536455;29;20479;-78
2023/03/17 02:15:02;;;;;;;8.02;3.30;;;;;;;-0.36;85.72;98524.47;2536206;29;20071;-77
2023/03/17 02:16:18;;;;;;;7.18;2.97;;;;;;;-0.37;85.94;98518.44;2536139;29;20052;-76
2023/03/17 02:17:33;;;;;;;7.75;3.20;;;;;;;-0.35;85.28;98513.34;2536271;29;20084;-77
2023/03/17 02:18:49;;;;;;;7.93;3.55;;;;;;;-0.06;81.58;98518.09;2536238;29;20056;-77
2023/03/17 02:20:17;;;;;;;8.68;3.70;;;;;;;0.08;79.72;98521.75;2536212;29;20411;-77
2023/03/17 02:21:39;;;;;;;8.05;3.63;;;;;;;-0.06;82.71;98523.25;2535943;29;20403;-77
2023/03/17 02:22:56;;;;;;;8.00;4.22;;;;;;;-0.27;84.44;98514.34;2536308;29;20060;-77
2023/03/17 02:24:19;;;;;;;5.80;2.85;;;;;;;-0.56;87.05;98514.69;2536239;29;20083;-77
2023/03/17 02:25:36;;;;;;;10.88;4.38;;;;;;;-0.22;85.34;98509.25;2536263;29;20454;-77
2023/03/17 02:26:57;;;;;;;10.75;4.20;;;;;;;-0.48;88.52;98500.25;2536004;29;20090;-77
2023/03/17 02:28:17;;;;;;;9.88;4.60;;;;;;;-0.16;87.15;98505.06;2535671;29;20496;-76
2023/03/17 02:29:36;;;;;;;11.25;4.05;;;;;;;-0.11;83.63;98501.72;2535968;29;20068;-76
2023/03/17 02:30:52;;;;;;;8.77;4.20;;;;;;;-0.50;88.46;98493.34;2536385;29;20055;-77
2023/03/17 02:32:08;;;;;;;12.15;4.28;;;;;;;-0.21;85.90;98504.13;2536122;29;20059;-77
2023/03/17 02:33:26;;;;;;;12.35;4.72;;;;;;;-0.16;85.39;98494.78;2536028;29;20474;-76
2023/03/17 02:34:43;;;;;;;9.13;4.93;;;;;;;-0.37;91.93;98507.31;2536116;29;20063;-75
2023/03/17 02:36:00;;;;;;;17.63;6.80;;;;;;;-0.08;90.85;98497.47;2536160;29;20060;-77
2023/03/17 02:37:17;;;;;;;11.40;5.50;;;;;;;-0.23;88.62;98499.78;2535928;29;20248;-78
2023/03/17 02:38:33;;;;;;;14.82;5.22;;;;;;;-0.19;88.98;98493.88;2535830;29;20507;-77
2023/03/17 02:39:48;;;;;;;14.75;5.68;;;;;;;-0.39;88.32;98490.97;2536079;29;20060;-77
2023/03/17 02:41:06;;;;;;;12.60;5.13;;;;;;;-0.40;88.56;98489.25;2535989;29;20067;-76
2023/03/17 02:42:21;;;;;;;10.25;4.90;;;;;;;-0.53;87.88;98493.28;2536016;29;20134;-77
2023/03/17 02:43:37;;;;;;;9.32;3.78;;;;;;;-0.97;95.34;98489.94;2536016;29;20052;-77
2023/03/17 02:44:53;;;;;;;10.07;4.00;;;;;;;-1.09;97.08;98487.13;2535910;29;20084;-76
2023/03/17 02:46:08;;;;;;;7.20;3.05;;;;;;;-1.02;99.45;98489.00;2536127;29;20499;-76
2023/03/17 02:47:24;;;;;;;5.82;3.05;;;;;;;-0.83;96.35;98481.63;2536058;29;20256;-77
2023/03/17 02:48:40;;;;;;;9.15;3.20;;;;;;;-0.71;93.56;98482.72;2536127;29;20063;-76
2023/03/17 02:49:56;;;;;;;7.57;3.15;;;;;;;-0.65;92.67;98487.09;2536124;29;20556;-76
2023/03/17 02:51:12;;;;;;;6.30;3.28;;;;;;;-0.57;91.77;98492.38;2536315;29;20051;-76
2023/03/17 02:52:27;;;;;;;6.07;3.15;;;;;;;-0.53;92.22;98493.28;2535945;29;20079;-77
2023/03/17 02:53:43;;;;;;;8.07;3.05;;;;;;;-0.62;93.79;98489.75;2535996;29;20508;-77
2023/03/17 02:54:59;;;;;;;8.80;3.03;;;;;;;-0.66;93.15;98487.09;2536325;29;20635;-76
2023/03/17 02:56:14;;;;;;;6.68;2.72;;;;;;;-0.53;90.68;98489.03;2536230;29;20056;-77
2023/03/17 02:57:30;;;;;;;6.70;2.65;;;;;;;-0.52;89.91;98484.75;2536090;29;20048;-77
2023/03/17 02:58:46;;;;;;;7.20;3.17;;;;;;;-0.32;88.14;98482.50;2535828;29;20060;-76
2023/03/17 03:00:03;;;;;;;7.80;3.13;;;;;;;-0.36;87.77;98485.88;2536773;29;20055;-76
2023/03/17 03:01:19;;;;;;;5.70;2.85;;;;;;;-0.13;85.79;98485.41;2536327;29;20589;-77
2023/03/17 03:02:37;;;;;;;7.35;3.10;;;;;;;-0.09;85.10;98490.59;2535860;29;20059;-77
2023/03/17 03:03:53;;;;;;;8.52;3.58;;;;;;;0.04;82.69;98483.94;2536161;29;20063;-77
2023/03/17 03:05:09;;;;;;;9.35;3.83;;;;;;;0.06;80.96;98486.50;2525672;29;20044;-76
2023/03/17 03:06:25;;;;;;;7.90;3.00;;;;;;;0.09;81.43;98489.16;2529611;29;20143;-76
2023/03/17 03:07:41;;;;;;;9.43;3.25;;;;;;;0.05;81.95;98485.66;2536195;29;20055;-77
2023/03/17 03:08:56;;;;;;;10.43;4.55;;;;;;;0.13;82.97;98490.94;2535839;29;20095;-76
2023/03/17 03:10:12;;;;;;;10.07;4.35;;;;;;;0.07;83.80;98486.56;2536042;29;20350;-77
2023/03/17 03:11:28;;;;;;;8.75;3.97;;;;;;;0.17;83.09;98482.41;2536098;29;20628;-76
2023/03/17 03:12:44;;;;;;;10.30;3.55;;;;;;;0.08;83.74;98477.97;2535847;29;20598;-77
2023/03/17 03:14:00;;;;;;;10.98;4.28;;;;;;;-0.13;85.55;98477.69;2536305;29;20466;-77
2023/03/17 03:15:15;;;;;;;8.40;4.50;;;;;;;0.04;84.88;98477.91;2536228;29;20056;-76
2023/03/17 03:16:31;;;;;;;12.20;5.25;;;;;;;-0.35;87.11;98483.34;2535978;29;20229;-76
2023/03/17 03:17:47;;;;;;;11.15;4.75;;;;;;;-0.47;87.96;98478.00;2536208;29;20177;-77
2023/03/17 03:19:02;;;;;;;9.02;3.83;;;;;;;-0.29;86.46;98477.41;2535753;29;20063;-76
2023/03/17 03:20:19;;;;;;;8.13;3.20;;;;;;;-0.30;85.22;98484.28;2535871;29;20055;-77
2023/03/17 03:21:35;;;;;;;7.65;3.47;;;;;;;-0.17;84.12;98481.91;2535975;29;20088;-76
2023/03/17 03:22:51;;;;;;;6.85;3.72;;;;;;;-0.11;84.27;98481.97;2535989;29;20107;-76
2023/03/17 03:24:08;;;;;;;12.00;5.32;;;;;;;-0.20;86.50;98487.00;2535884;29;20056;-76
2023/03/17 03:25:23;;;;;;;10.13;4.72;;;;;;;-0.17;88.95;98487.91;2535589;29;20181;-77
2023/03/17 03:26:40;;;;;;;14.05;5.70;;;;;;;0.01;87.33;98493.31;2535667;29;20063;-76
2023/03/17 03:27:55;;;;;;;11.05;4.85;;;;;;;-0.03;87.33;98489.81;2535665;29;20519;-77
2023/03/17 03:29:11;;;;;;;12.50;5.72;;;;;;;0.09;86.05;98487.44;2535634;29;20528;-77
2023/03/17 03:30:27;;;;;;;9.70;4.38;;;;;;;-0.11;86.52;98487.13;2535753;29;20059;-76
2023/03/17 03:31:42;;;;;;;11.65;5.45;;;;;;;-0.10;86.62;98496.56;2535775;29;20402;-76
2023/03/17 03:32:59;;;;;;;11.38;5.05;;;;;;;-0.13;87.05;98487.97;2535507;29;20098;-77
2023/03/17 03:34:15;;;;;;;12.18;5.25;;;;;;;-0.32;88.14;98491.09;2524923;29;20527;-77
2023/03/17 03:35:30;;;;;;;11.43;4.70;;;;;;;-0.15;86.89;98495.66;2529459;29;20052;-76
2023/03/17 03:36:46;;;;;;;10.70;4.57;;;;;;;-0.37;87.26;98499.59;2535808;29;20086;-77
2023/03/17 03:38:02;;;;;;;13.30;5.30;;;;;;;-0.43;88.23;98496.03;2535588;29;20048;-77
2023/03/17 03:39:17;;;;;;;7.55;4.05;;;;;;;-0.32;87.17;98503.97;2535852;29;20052;-77
2023/03/17 03:40:35;;;;;;;8.68;4.22;;;;;;;-0.47;87.21;98496.84;2535654;29;20048;-75
2023/03/17 03:41:50;;;;;;;10.15;4.30;;;;;;;-0.64;87.10;98505.97;2535785;29;20987;-75
2023/03/17 03:43:06;;;;;;;11.30;4.75;;;;;;;-0.83;89.96;98505.66;2535586;29;20064;-75
2023/03/17 03:44:22;;;;;;;8.55;3.97;;;;;;;-0.57;89.21;98500.97;2535787;29;20143;-75
2023/03/17 03:45:38;;;;;;;13.13;4.90;;;;;;;-0.48;87.11;98501.97;2535504;29;20435;-75
2023/03/17 03:46:54;;;;;;;8.90;4.00;;;;;;;-0.42;85.37;98504.66;2535776;29;20440;-76
2023/03/17 03:48:10;;;;;;;10.07;4.05;;;;;;;-0.46;85.89;98501.16;2535629;29;20427;-76
2023/03/17 03:49:25;;;;;;;11.30;5.18;;;;;;;-0.54;86.44;98507.00;2525296;29;20096;-75
2023/03/17 03:50:41;;;;;;;9.45;4.05;;;;;;;-0.60;86.45;98507.75;2529451;29;20059;-75
2023/03/17 03:51:56;;;;;;;9.27;4.35;;;;;;;-0.69;86.28;98507.59;2535686;29;20047;-75
2023/03/17 03:53:12;;;;;;;7.20;4.05;;;;;;;-0.67;87.41;98508.50;2537497;29;20460;-76
2023/03/17 03:54:28;;;;;;;7.22;3.80;;;;;;;-0.53;86.57;98509.59;2537507;29;20078;-76
2023/03/17 03:55:44;;;;;;;8.63;3.80;;;;;;;-0.43;86.57;98514.06;2537600;29;20052;-76
2023/03/17 03:57:00;;;;;;;8.38;3.90;;;;;;;-0.30;85.93;98512.56;2527100;29;20059;-75
2023/03/17 03:58:15;;;;;;;7.55;3.70;;;;;;;-0.38;89.07;98501.28;2531161;29;20499;-75
2023/03/17 03:59:31;;;;;;;8.70;3.95;;;;;;;-0.31;86.62;98510.84;2537631;29;20874;-76
2023/03/17 04:00:47;;;;;;;10.05;3.97;;;;;;;-0.40;86.29;98499.53;2537505;29;20056;-76
2023/03/17 04:02:03;;;;;;;9.02;4.03;;;;;;;-0.53;87.17;98501.00;2536971;29;20484;-75
2023/03/17 04:03:19;;;;;;;7.78;4.18;;;;;;;-0.67;88.40;98491.34;2537505;29;20134;-76
2023/03/17 04:04:35;;;;;;;9.68;4.10;;;;;;;-0.87;89.54;98498.69;2537462;29;20067;-75
2023/03/17 04:05:50;;;;;;;6.85;3.53;;;;;;;-1.17;96.37;98487.00;2537522;29;20139;-75
2023/03/17 04:07:07;;;;;;;8.15;3.72;;;;;;;-1.06;97.62;98482.94;2537498;29;20134;-75
2023/03/17 04:08:22;;;;;;;6.47;2.80;;;;;;;-0.82;97.43;98485.94;2537254;29;20056;-75
2023/03/17 04:09:38;;;;;;;5.82;2.47;;;;;;;-0.78;95.44;98486.03;2537459;29;20056;-76
2023/03/17 04:10:54;;;;;;;8.30;3.28;;;;;;;-0.60;94.54;98484.59;2537333;29;20471;-75
2023/03/17 04:12:10;;;;;;;7.15;3.35;;;;;;;-0.63;94.07;98489.72;2537403;29;20055;-75
2023/03/17 04:13:25;;;;;;;9.38;3.88;;;;;;;-0.12;91.32;98489.69;2537463;29;20059;-75
2023/03/17 04:14:43;;;;;;;8.55;3.88;;;;;;;-0.38;93.66;98495.28;2526903;29;20088;-75
2023/03/17 04:16:00;;;;;;;6.72;3.33;;;;;;;-0.24;90.83;98490.34;2531261;29;20621;-75
2023/03/17 04:17:15;;;;;;;5.18;3.08;;;;;;;0.02;89.20;98498.50;2537227;29;20063;-76
2023/03/17 04:18:31;;;;;;;6.70;3.20;;;;;;;-0.16;89.21;98497.34;2536961;29;20138;-76
2023/03/17 04:19:47;;;;;;;8.32;3.63;;;;;;;-0.42;88.95;98494.34;2537620;29;20452;-76
2023/03/17 04:21:02;;;;;;;7.75;3.85;;;;;;;-0.60;91.42;98498.34;2537330;29;20052;-77
2023/03/17 04:22:18;;;;;;;8.93;3.67;;;;;;;-0.71;93.10;98492.16;2537384;29;20084;-76
2023/03/17 04:23:34;;;;;;;8.10;3.40;;;;;;;-0.41;89.73;98490.09;2537374;29;20044;-76
2023/03/17 04:24:49;;;;;;;10.18;3.22;;;;;;;-0.33;86.69;98483.34;2537299;29;20999;-79
2023/03/17 04:26:06;;;;;;;8.85;3.38;;;;;;;-0.64;89.00;98490.53;2537224;29;20056;-76
2023/03/17 04:27:21;;;;;;;5.65;3.33;;;;;;;-0.78;92.74;98486.03;2537285;29;20996;-75
2023/03/17 04:28:37;;;;;;;10.05;3.83;;;;;;;-0.79;96.40;98484.28;2526484;29;20078;-76
2023/03/17 04:29:53;;;;;;;11.57;4.38;;;;;;;-0.76;98.73;98488.63;2531169;29;20099;-76
2023/03/17 04:31:11;;;;;;;13.05;4.90;;;;;;;-0.52;97.37;98483.06;2536824;29;20411;-76
2023/03/17 04:32:26;;;;;;;8.50;3.72;;;;;;;-0.26;95.81;98485.19;2537174;29;20571;-76
2023/03/17 04:33:42;;;;;;;8.73;3.97;;;;;;;-0.26;93.21;98484.31;2536629;29;20044;-75
2023/03/17 04:34:58;;;;;;;10.10;4.35;;;;;;;-0.15;92.30;98483.63;2537243;29;20392;-75
2023/03/17 04:36:21;;;;;;;9.70;4.07;;;;;;;-0.22;93.12;98481.81;2536945;29;20402;-75
2023/03/17 04:37:37;;;;;;;7.53;3.83;;;;;;;-0.42;95.05;98491.78;2536974;29;20056;-75
2023/03/17 04:38:53;;;;;;;9.70;4.20;;;;;;;-0.25;93.11;98493.75;2537319;29;20059;-76
2023/03/17 04:40:11;;;;;;;10.35;4.13;;;;;;;-0.13;91.24;98495.69;2536978;29;20527;-76
2023/03/17 04:41:27;;;;;;;8.40;3.75;;;;;;;-0.12;88.90;98495.69;2537160;29;20090;-76
2023/03/17 04:42:43;;;;;;;7.05;3.50;;;;;;;-0.23;89.50;98490.38;2536880;29;20052;-76
2023/03/17 04:43:58;;;;;;;9.73;4.22;;;;;;;-0.18;88.32;98496.47;2537279;29;20483;-75
2023/03/17 04:45:15;;;;;;;7.43;3.88;;;;;;;-0.29;89.92;98495.41;2537347;29;20110;-75
2023/03/17 04:46:31;;;;;;;8.48;4.07;;;;;;;-0.35;91.04;98498.78;2537056;29;20484;-75
2023/03/17 04:47:46;;;;;;;8.38;3.95;;;;;;;-0.17;90.46;98498.19;2537194;29;20608;-75
2023/03/17 04:49:02;;;;;;;9.23;4.15;;;;;;;-0.11;88.98;98501.72;2537306;29;20717;-75
2023/03/17 04:50:18;;;;;;;9.18;3.90;;;;;;;-0.17;90.55;98497.34;2535511;29;20438;-77
2023/03/17 04:51:35;;;;;;;6.50;3.63;;;;;;;-0.37;90.50;98500.44;2537187;29;20140;-75
2023/03/17 04:52:51;;;;;;;7.38;3.40;;;;;;;-0.68;92.02;98489.63;2537057;29;20495;-76
2023/03/17 04:54:07;;;;;;;6.40;3.30;;;;;;;-0.72;92.14;98491.25;2537115;29;20044;-75
2023/03/17 04:55:22;;;;;;;8.77;3.53;;;;;;;-0.59;90.99;98487.22;2537050;29;20893;-76
2023/03/17 04:56:38;;;;;;;10.07;3.63;;;;;;;-0.62;92.06;98488.88;2536981;29;20087;-76
2023/03/17 04:57:53;;;;;;;7.97;3.88;;;;;;;-0.60;91.72;98497.47;2536923;29;20147;-76
2023/03/17 04:59:10;;;;;;;9.38;4.25;;;;;;;-0.40;90.97;98499.53;2537133;29;20044;-76
2023/03/17 05:00:26;;;;;;;7.63;3.85;;;;;;;-0.20;88.11;98495.56;2536970;29;20147;-76
2023/03/17 05:01:42;;;;;;;6.15;3.25;;;;;;;-0.02;86.86;98492.44;2536906;29;20134;-76
2023/03/17 05:02:57;;;;;;;8.10;3.70;;;;;;;0.07;85.88;98493.38;2536762;29;20067;-77
2023/03/17 05:04:13;;;;;;;6.47;3.28;;;;;;;0.22;84.55;98487.63;2536814;29;20702;-77
2023/03/17 05:05:29;;;;;;;10.98;3.75;;;;;;;0.29;84.31;98492.03;2536972;29;20067;-77
2023/03/17 05:06:45;;;;;;;9.93;3.58;;;;;;;-0.02;85.11;98494.13;2536996;29;20056;-78
2023/03/17 05:08:01;;;;;;;13.23;4.72;;;;;;;-0.07;87.17;98488.94;2537171;29;20138;-78
2023/03/17 05:09:16;;;;;;;9.27;4.60;;;;;;;-0.03;86.12;98490.69;2537102;29;20052;-77
2023/03/17 05:10:32;;;;;;;8.68;4.50;;;;;;;-0.01;86.47;98488.13;2536872;29;20063;-75
2023/03/17 05:11:48;;;;;;;9.18;4.47;;;;;;;0.12;85.87;98494.34;2536922;29;20116;-74
2023/03/17 05:13:03;;;;;;;13.77;4.60;;;;;;;-0.17;86.86;98493.03;2536595;29;20052;-77
2023/03/17 05:14:20;;;;;;;8.43;3.80;;;;;;;0.01;84.78;98496.78;2536691;29;20051;-77
2023/03/17 05:15:35;;;;;;;10.45;4.80;;;;;;;-0.08;85.55;98500.03;2536896;29;20083;-75
2023/03/17 05:16:51;;;;;;;6.90;3.88;;;;;;;-0.41;90.94;98502.94;2536851;29;20072;-75
2023/03/17 05:18:07;;;;;;;9.32;4.22;;;;;;;-0.16;89.51;98499.06;2536779;29;20134;-75
2023/03/17 05:19:22;;;;;;;7.70;4.10;;;;;;;-0.03;89.37;98500.13;2536622;29;20522;-76
2023/03/17 05:20:38;;;;;;;9.63;4.25;;;;;;;-0.06;86.49;98500.94;2536944;29;20052;-76
2023/03/17 05:21:54;;;;;;;9.10;4.97;;;;;;;-0.19;87.36;98497.31;2536574;29;20074;-76
2023/03/17 05:23:10;;;;;;;8.10;3.97;;;;;;;-0.18;88.04;98500.75;2536523;29;20166;-77
2023/03/17 05:24:25;;;;;;;7.53;3.90;;;;;;;-0.36;88.96;98486.72;2536955;29;20059;-76
2023/03/17 05:25:41;;;;;;;9.20;4.32;;;;;;;-0.88;95.86;98486.69;2536835;29;20575;-75
2023/03/17 05:26:57;;;;;;;9.38;3.60;;;;;;;-0.65;94.48;98481.94;2536110;29;20091;-76
2023/03/17 05:28:13;;;;;;;7.57;3.88;;;;;;;-0.32;90.40;98477.38;2537071;29;20514;-76
2023/03/17 05:29:29;;;;;;;9.15;3.30;;;;;;;-0.69;92.09;98475.03;2537077;29;20253;-77
2023/03/17 05:30:46;;;;;;;8.27;3.40;;;;;;;-0.65;91.57;98466.53;2537319;29;20520;-76
2023/03/17 05:32:02;;;;;;;7.60;3.75;;;;;;;-0.48;90.31;98461.69;2536826;29;20166;-76
2023/03/17 05:33:19;;;;;;;10.93;3.40;;;;;;;-0.29;88.34;98460.28;2536846;29;20551;-76
2023/03/17 05:34:35;;;;;;;8.85;3.72;;;;;;;-0.20;86.04;98461.28;2536893;29;20075;-76
2023/03/17 05:35:51;;;;;;;10.25;3.42;;;;;;;-0.49;87.33;98452.22;2536700;29;20055;-76
2023/03/17 05:37:06;;;;;;;7.45;3.22;;;;;;;-0.37;87.21;98448.13;2536746;29;20056;-76
2023/03/17 05:38:22;;;;;;;10.68;3.63;;;;;;;0.02;83.93;98452.16;2536366;29;20063;-77
2023/03/17 05:39:38;;;;;;;8.32;3.78;;;;;;;0.03;82.24;98453.00;2536341;29;20307;-77
2023/03/17 05:40:53;;;;;;;7.45;3.42;;;;;;;0.21;80.89;98449.84;2536724;29;20048;-76
2023/03/17 05:42:10;;;;;;;8.55;3.47;;;;;;;0.24;81.37;98452.44;2536441;29;20052;-76
2023/03/17 05:43:25;;;;;;;5.63;3.35;;;;;;;0.43;80.09;98445.00;2536302;29;20531;-76
2023/03/17 05:44:41;;;;;;;6.97;3.47;;;;;;;0.52;79.08;98443.38;2536404;29;20378;-76
2023/03/17 05:45:57;;;;;;;7.88;3.63;;;;;;;0.53;79.17;98444.22;2525848;29;20127;-76
2023/03/17 05:47:13;;;;;;;9.00;3.75;;;;;;;0.10;82.20;98444.53;2530489;29;20385;-77
2023/03/17 05:48:28;;;;;;;10.30;3.60;;;;;;;-0.26;85.35;98450.88;2536305;29;20066;-77
2023/03/17 05:49:44;;;;;;;9.60;4.03;;;;;;;0.17;82.18;98459.22;2536515;29;20090;-76
2023/03/17 05:51:00;;;;;;;7.47;3.95;;;;;;;0.49;80.14;98468.22;2535776;29;20048;-76
2023/03/17 05:52:17;;;;;;;8.30;3.83;;;;;;;0.55;79.51;98465.72;2536647;29;20059;-76
2023/03/17 05:53:34;;;;;;;10.27;3.50;;;;;;;0.15;83.87;98480.66;2536559;29;20138;-76
2023/03/17 05:54:52;;;;;;;9.73;4.32;;;;;;;0.45;84.43;98469.91;2536260;29;20072;-76
2023/03/17 05:56:08;;;;;;;8.80;4.10;;;;;;;0.59;83.25;98475.25;2536457;29;20076;-76
2023/03/17 05:57:24;;;;;;;7.85;3.92;;;;;;;0.72;82.19;98472.81;2536308;29;20092;-76
2023/03/17 05:58:39;;;;;;;7.85;3.95;;;;;;;0.42;83.29;98475.00;2525368;29;20080;-76
2023/03/17 05:59:55;;;;;;;7.82;4.05;;;;;;;0.05;88.54;98489.94;2530020;29;20632;-76
2023/03/17 06:01:11;;;;;;;10.73;4.10;;;;;;;-0.10;91.38;98476.00;2525371;29;20045;-77
2023/03/17 06:02:26;;;;;;;11.05;4.40;;;;;;;-0.06;91.97;98480.38;2530023;29;20431;-76